.
WxDataArchive / Data Records for 2006-12-09
2006-12-08 December 2006 2006-12-10

Data Records for Saturday, 09 December 2006

Time	Temp	Chill	HIndex	Humid	Dewpt	 Wind 	HiWind	WindDir	Rain 	Barom 
-----	----	-----	------	-----	-----	------	------	-------	-----	----- 
00:00	22.2	22.2	22.2	56	8.9	3	11	248	0.00	30.378 
00:05	22.2	22.2	22.2	57	9.3	3	11	248	0.00	30.378 
00:10	22.2	22.2	22.2	58	9.7	1	7	248	0.00	30.378 
00:15	22.2	22.2	22.2	58	9.7	2	6	248	0.00	30.381 
00:20	22.2	22.2	22.2	58	9.7	2	7	248	0.00	30.381 
00:25	22.2	22.2	22.2	58	9.7	3	10	248	0.00	30.381 
00:30	22.2	22.2	22.2	58	9.7	2	6	248	0.00	30.382 
00:35	22.2	22.2	22.2	58	9.7	2	11	248	0.00	30.382 
00:40	22.2	22.2	22.2	58	9.7	3	11	248	0.00	30.382 
00:45	22.2	22.2	22.2	59	10.1	3	12	248	0.00	30.381 
00:50	22.2	22.2	22.2	58	9.7	3	9	248	0.00	30.381 
00:55	22.2	22.2	22.2	59	10.1	3	10	248	0.00	30.381 
01:00	22.2	22.2	22.2	59	10.1	2	6	270	0.00	30.377 
01:05	22.2	22.2	22.2	59	10.1	3	11	270	0.00	30.377 
01:10	22.4	22.4	22.4	59	10.3	3	7	270	0.00	30.377 
01:15	22.4	15.8	22.4	58	9.9	5	14	270	0.00	30.372 
01:20	22.4	22.4	22.4	58	9.9	3	13	248	0.00	30.372 
01:25	22.4	22.4	22.4	58	9.9	3	15	270	0.00	30.372 
01:30	22.4	17.0	22.4	58	9.9	4	10	270	0.00	30.370 
01:35	22.4	22.4	22.4	59	10.3	3	12	270	0.00	30.370 
01:40	22.2	22.2	22.2	59	10.1	3	6	270	0.00	30.370 
01:45	22.4	15.8	22.4	58	9.9	5	14	270	0.00	30.364 
01:50	22.4	17.0	22.4	58	9.9	4	12	248	0.00	30.364 
01:55	22.2	22.2	22.2	59	10.1	2	10	248	0.00	30.364 
02:00	22.2	16.8	22.2	58	9.7	4	13	270	0.00	30.363 
02:05	22.2	22.2	22.2	59	10.1	3	11	248	0.00	30.363 
02:10	22.2	22.2	22.2	59	10.1	2	11	270	0.00	30.363 
02:15	22.2	22.2	22.2	59	10.1	2	6	248	0.00	30.367 
02:20	22.1	22.1	22.1	59	10.0	1	3	248	0.00	30.367 
02:25	22.1	22.1	22.1	59	10.0	2	5	248	0.00	30.367 
02:30	22.1	22.1	22.1	59	10.0	2	9	248	0.00	30.368 
02:35	22.1	22.1	22.1	59	10.0	1	5	248	0.00	30.368 
02:40	22.1	22.1	22.1	59	10.0	2	9	248	0.00	30.368 
02:45	22.1	22.1	22.1	59	10.0	3	10	248	0.00	30.374 
02:50	22.1	22.1	22.1	59	10.0	3	9	248	0.00	30.374 
02:55	22.1	22.1	22.1	59	10.0	2	6	248	0.00	30.374 
03:00	22.1	22.1	22.1	59	10.0	2	6	248	0.00	30.379 
03:05	22.1	22.1	22.1	59	10.0	2	6	270	0.00	30.379 
03:10	21.9	21.9	21.9	59	9.8	2	9	248	0.00	30.379 
03:15	21.9	21.9	21.9	60	10.2	2	6	248	0.00	30.378 
03:20	21.9	21.9	21.9	60	10.2	1	5	248	0.00	30.378 
03:25	21.9	21.9	21.9	60	10.2	2	6	270	0.00	30.378 
03:30	21.8	21.8	21.8	60	10.1	1	5	248	0.00	30.375 
03:35	21.8	21.8	21.8	60	10.1	2	6	248	0.00	30.375 
03:40	21.8	21.8	21.8	60	10.1	2	5	248	0.00	30.375 
03:45	21.8	21.8	21.8	60	10.1	2	6	248	0.00	30.365 
03:50	21.8	21.8	21.8	60	10.1	2	7	248	0.00	30.365 
03:55	21.9	21.9	21.9	59	9.8	3	11	270	0.00	30.365 
04:00	21.9	21.9	21.9	59	9.8	3	9	270	0.00	30.362 
04:05	21.9	21.9	21.9	59	9.8	3	12	248	0.00	30.362 
04:10	21.9	21.9	21.9	59	9.8	2	7	248	0.00	30.362 
04:15	21.9	21.9	21.9	59	9.8	3	7	248	0.00	30.362 
04:20	21.9	21.9	21.9	59	9.8	3	7	248	0.00	30.362 
04:25	21.9	21.9	21.9	59	9.8	3	12	248	0.00	30.362 
04:30	21.9	21.9	21.9	59	9.8	2	7	248	0.00	30.360 
04:35	21.9	21.9	21.9	59	9.8	3	10	248	0.00	30.360 
04:40	21.9	21.9	21.9	59	9.8	2	6	248	0.00	30.360 
04:45	21.8	21.8	21.8	59	9.7	2	7	248	0.00	30.359 
04:50	21.8	21.8	21.8	59	9.7	2	6	248	0.00	30.359 
04:55	21.6	21.6	21.6	60	9.9	2	7	248	0.00	30.359 
05:00	21.6	21.6	21.6	60	9.9	3	11	248	0.00	30.358 
05:05	21.6	21.6	21.6	59	9.5	2	6	248	0.00	30.358 
05:10	21.6	21.6	21.6	59	9.5	2	7	270	0.00	30.358 
05:15	21.6	21.6	21.6	60	9.9	1	7	248	0.00	30.361 
05:20	21.6	21.6	21.6	60	9.9	1	7	248	0.00	30.361 
05:25	21.4	21.4	21.4	60	9.7	1	5	248	0.00	30.361 
05:30	21.4	21.4	21.4	60	9.7	1	4	248	0.00	30.357 
05:35	21.4	21.4	21.4	60	9.7	1	4	248	0.00	30.357 
05:40	21.4	21.4	21.4	60	9.7	1	6	248	0.00	30.357 
05:45	21.4	21.4	21.4	60	9.7	2	5	248	0.00	30.352 
05:50	21.4	21.4	21.4	60	9.7	3	9	248	0.00	30.352 
05:55	21.4	21.4	21.4	60	9.7	2	9	248	0.00	30.352 
06:00	21.4	21.4	21.4	61	10.1	1	7	248	0.00	30.352 
06:05	21.3	21.3	21.3	60	9.6	1	4	248	0.00	30.352 
06:10	21.3	21.3	21.3	60	9.6	2	5	248	0.00	30.352 
06:15	21.3	21.3	21.3	60	9.6	1	4	248	0.00	30.349 
06:20	21.3	21.3	21.3	60	9.6	2	6	248	0.00	30.349 
06:25	21.3	21.3	21.3	60	9.6	1	5	248	0.00	30.349 
06:30	21.3	21.3	21.3	60	9.6	1	5	248	0.00	30.348 
06:35	21.1	21.1	21.1	61	9.8	1	7	248	0.00	30.348 
06:40	21.1	21.1	21.1	61	9.8	2	7	248	0.00	30.348 
06:45	21.1	21.1	21.1	61	9.8	2	9	248	0.00	30.348 
06:50	21.1	21.1	21.1	61	9.8	2	8	248	0.00	30.348 
06:55	21.0	21.0	21.0	61	9.7	1	3	248	0.00	30.348 
07:00	21.1	21.1	21.1	61	9.8	2	9	248	0.00	30.347 
07:05	21.1	21.1	21.1	61	9.8	1	5	248	0.00	30.347 
07:10	21.1	21.1	21.1	61	9.8	2	9	248	0.00	30.347 
07:15	21.1	21.1	21.1	61	9.8	2	5	248	0.00	30.341 
07:20	21.3	21.3	21.3	60	9.6	2	6	270	0.00	30.341 
07:25	21.3	21.3	21.3	60	9.6	2	5	248	0.00	30.341 
07:30	21.3	21.3	21.3	60	9.6	2	6	248	0.00	30.336 
07:35	21.1	21.1	21.1	61	9.8	1	3	248	0.00	30.336 
07:40	21.1	21.1	21.1	61	9.8	2	7	248	0.00	30.336 
07:45	21.1	21.1	21.1	61	9.8	2	7	248	0.00	30.335 
07:50	21.1	21.1	21.1	61	9.8	1	6	248	0.00	30.335 
07:55	21.1	21.1	21.1	61	9.8	2	7	248	0.00	30.335 
08:00	21.1	21.1	21.1	61	9.8	2	5	248	0.00	30.333 
08:05	21.1	21.1	21.1	61	9.8	1	5	248	0.00	30.333 
08:10	21.0	21.0	21.0	62	10.1	1	6	248	0.00	30.333 
08:15	21.0	21.0	21.0	62	10.1	1	4	248	0.00	30.325 
08:20	21.1	21.1	21.1	62	10.1	2	5	248	0.00	30.325 
08:25	21.1	21.1	21.1	62	10.1	1	6	248	0.00	30.325 
08:30	21.3	21.3	21.3	61	10.0	2	5	248	0.00	30.331 
08:35	21.6	21.6	21.6	61	10.3	2	7	248	0.00	30.331 
08:40	21.8	21.8	21.8	60	10.1	2	6	248	0.00	30.331 
08:45	21.9	21.9	21.9	60	10.2	1	5	248	0.00	30.329 
08:50	22.1	22.1	22.1	60	10.4	2	7	248	0.00	30.329 
08:55	22.2	22.2	22.2	59	10.1	3	6	248	0.00	30.329 
09:00	22.4	22.4	22.4	58	9.9	2	11	248	0.00	30.327 
09:05	22.7	22.7	22.7	58	10.2	2	7	248	0.00	30.327 
09:10	22.9	22.9	22.9	58	10.4	2	7	248	0.00	30.327 
09:15	23.2	23.2	23.2	57	10.3	2	7	248	0.00	30.325 
09:20	23.5	23.5	23.5	57	10.5	3	11	248	0.00	30.325 
09:25	23.8	23.8	23.8	56	10.4	2	7	270	0.00	30.325 
09:30	24.1	24.1	24.1	55	10.3	2	13	270	0.00	30.319 
09:35	24.2	24.2	24.2	55	10.4	2	6	248	0.00	30.319 
09:40	24.5	24.5	24.5	54	10.3	2	5	248	0.00	30.319 
09:45	24.8	24.8	24.8	54	10.5	2	9	248	0.00	30.317 
09:50	24.8	19.8	24.8	54	10.5	4	13	248	0.00	30.317 
09:55	25.1	25.1	25.1	54	10.8	3	9	270	0.00	30.317 
10:00	25.4	25.4	25.4	54	11.1	3	7	248	0.00	30.318 
10:05	25.7	25.7	25.7	53	11.0	3	14	248	0.00	30.318 
10:10	25.8	25.8	25.8	52	10.6	3	7	248	0.00	30.318 
10:15	26.1	21.3	26.1	52	10.9	4	9	270	0.00	30.317 
10:20	26.4	26.4	26.4	52	11.2	3	9	248	0.00	30.317 
10:25	26.7	26.7	26.7	52	11.5	2	5	248	0.00	30.317 
10:30	27.0	22.3	27.0	51	11.3	4	9	270	0.00	30.316 
10:35	27.2	27.2	27.2	50	11.1	3	7	248	0.00	30.316 
10:40	27.5	27.5	27.5	50	11.3	3	9	248	0.00	30.316 
10:45	27.6	27.6	27.6	50	11.4	3	10	270	0.00	30.313 
10:50	27.9	27.9	27.9	50	11.7	3	9	248	0.00	30.313 
10:55	28.2	28.2	28.2	49	11.5	3	13	248	0.00	30.313 
11:00	28.5	24.0	28.5	49	11.8	4	9	248	0.00	30.308 
11:05	28.7	24.3	28.7	48	11.5	4	9	248	0.00	30.308 
11:10	29.0	24.6	29.0	48	11.8	4	10	270	0.00	30.308 
11:15	29.3	29.3	29.3	50	13.0	2	5	248	0.00	30.296 
11:20	29.5	29.5	29.5	48	12.3	3	7	248	0.00	30.296 
11:25	30.0	30.0	30.0	48	12.7	3	9	248	0.00	30.296 
11:30	30.1	25.9	30.1	48	12.8	4	9	248	0.00	30.293 
11:35	30.6	30.6	30.6	48	13.3	2	5	248	0.00	30.293 
11:40	31.2	31.2	31.2	47	13.3	3	7	248	0.00	30.293 
11:45	31.2	27.2	31.2	46	12.9	4	11	270	0.00	30.285 
11:50	31.2	27.2	31.2	46	12.9	4	11	248	0.00	30.285 
11:55	31.5	31.5	31.5	46	13.1	3	10	248	0.00	30.285 
12:00	31.9	31.9	31.9	46	13.5	2	9	248	0.00	30.275 
12:05	32.4	32.4	32.4	46	14.0	3	6	248	0.00	30.275 
12:10	32.5	28.7	32.5	44	13.0	4	10	270	0.00	30.275 
12:15	32.8	32.8	32.8	44	13.3	3	9	248	0.00	30.278 
12:20	32.7	28.9	32.7	44	13.2	4	12	248	0.00	30.278 
12:25	32.8	29.0	32.8	44	13.3	4	12	248	0.00	30.278 
12:30	33.1	33.1	33.1	44	13.6	3	7	248	0.00	30.275 
12:35	33.5	33.5	33.5	43	13.4	3	7	270	0.00	30.275 
12:40	33.5	29.8	33.5	43	13.4	4	12	270	0.00	30.275 
12:45	33.7	30.0	33.7	44	14.1	4	10	248	0.00	30.265 
12:50	34.3	34.3	34.3	42	13.6	3	7	248	0.00	30.265 
12:55	34.7	34.7	34.7	42	14.0	3	7	248	0.00	30.265 
13:00	34.9	30.5	34.9	42	14.2	5	11	248	0.00	30.256 
13:05	35.0	31.5	35.0	41	13.7	4	10	270	0.00	30.256 
13:10	35.2	35.2	35.2	42	14.4	3	7	248	0.00	30.256 
13:15	35.5	35.5	35.5	41	14.2	3	9	248	0.00	30.246 
13:20	35.3	31.9	35.3	41	14.0	4	9	270	0.00	30.246 
13:25	35.3	31.0	35.3	40	13.4	5	12	248	0.00	30.246 
13:30	35.3	31.0	35.3	40	13.4	5	15	248	0.00	30.244 
13:35	35.3	30.2	35.3	40	13.4	6	16	248	0.00	30.244 
13:40	35.6	32.2	35.6	41	14.2	4	9	248	0.00	30.244 
13:45	36.0	31.8	36.0	41	14.6	5	13	270	0.00	30.241 
13:50	36.3	33.0	36.3	40	14.3	4	10	248	0.00	30.241 
13:55	36.5	33.3	36.5	40	14.5	4	9	270	0.00	30.241 
14:00	36.6	33.4	36.6	40	14.6	4	13	248	0.00	30.239 
14:05	36.8	33.6	36.8	40	14.8	4	11	248	0.00	30.239 
14:10	36.9	33.7	36.9	40	14.9	4	8	248	0.00	30.239 
14:15	37.2	37.2	37.2	41	15.7	3	9	248	0.00	30.225 
14:20	37.3	33.3	37.3	40	15.2	5	12	248	0.00	30.225 
14:25	37.8	33.9	37.8	39	15.1	5	15	248	0.00	30.225 
14:30	38.2	35.2	38.2	39	15.4	4	10	270	0.00	30.223 
14:35	38.2	35.2	38.2	39	15.4	4	12	248	0.00	30.223 
14:40	38.3	34.5	38.3	38	14.9	5	13	270	0.00	30.223 
14:45	38.3	34.5	38.3	37	14.3	5	13	248	0.00	30.219 
14:50	38.3	33.7	38.3	37	14.3	6	14	270	0.00	30.219 
14:55	38.6	34.8	38.6	38	15.2	5	10	270	0.00	30.219 
15:00	39.1	39.1	39.1	38	15.7	3	9	248	0.00	30.217 
15:05	39.3	39.3	39.3	38	15.8	3	12	270	0.00	30.217 
15:10	39.5	36.7	39.5	37	15.4	4	10	248	0.00	30.217 
15:15	39.6	39.6	39.6	37	15.5	3	9	248	0.00	30.211 
15:20	39.8	37.1	39.8	36	15.0	4	12	248	0.00	30.211 
15:25	40.2	40.2	40.2	36	15.4	3	10	248	0.00	30.211 
15:30	40.1	35.9	40.1	36	15.3	6	12	248	0.00	30.207 
15:35	40.2	36.7	40.2	35	14.8	5	12	248	0.00	30.207 
15:40	39.9	35.0	39.9	35	14.5	7	14	248	0.00	30.207 
15:45	39.9	36.4	39.9	35	14.5	5	20	248	0.00	30.212 
15:50	39.8	36.2	39.8	37	15.7	5	10	248	0.00	30.212 
15:55	39.8	37.1	39.8	37	15.7	4	12	248	0.00	30.212 
16:00	39.6	36.9	39.6	37	15.5	4	12	248	0.00	30.214 
16:05	39.6	36.9	39.6	37	15.5	4	10	270	0.00	30.214 
16:10	39.6	36.9	39.6	37	15.5	4	10	248	0.00	30.214 
16:15	39.5	39.5	39.5	38	16.0	3	7	248	0.00	30.211 
16:20	39.5	36.7	39.5	38	16.0	4	7	248	0.00	30.211 
16:25	39.3	36.5	39.3	38	15.8	4	12	270	0.00	30.211 
16:30	39.2	39.2	39.2	39	16.3	3	7	270	0.00	30.212 
16:35	39.1	39.1	39.1	39	16.3	3	6	248	0.00	30.212 
16:40	38.9	38.9	38.9	39	16.1	3	6	248	0.00	30.212 
16:45	38.8	38.8	38.8	39	16.0	3	12	248	0.00	30.209 
16:50	38.6	38.6	38.6	39	15.8	3	9	248	0.00	30.209 
16:55	38.5	38.5	38.5	39	15.7	3	11	248	0.00	30.209 
17:00	38.5	38.5	38.5	39	15.7	3	7	248	0.00	30.208 
17:05	38.3	38.3	38.3	39	15.5	3	7	248	0.00	30.208 
17:10	38.2	38.2	38.2	39	15.4	3	6	248	0.00	30.208 
17:15	38.0	38.0	38.0	40	15.8	2	5	248	0.00	30.210 
17:20	37.8	37.8	37.8	41	16.2	2	5	270	0.00	30.210 
17:25	37.3	37.3	37.3	42	16.3	1	3	248	0.00	30.210 
17:30	37.0	37.0	37.0	44	17.1	1	4	248	0.00	30.212 
17:35	36.8	36.8	36.8	45	17.5	1	3	270	0.00	30.212 
17:40	36.5	36.5	36.5	45	17.2	1	4	248	0.00	30.212 
17:45	36.5	36.5	36.5	45	17.2	1	5	248	0.00	30.212 
17:50	36.3	36.3	36.3	45	17.0	1	4	248	0.00	30.212 
17:55	36.2	36.2	36.2	44	16.4	1	6	248	0.00	30.212 
18:00	36.2	36.2	36.2	44	16.4	1	9	248	0.00	30.213 
18:05	36.2	36.2	36.2	43	15.9	1	4	270	0.00	30.213 
18:10	36.3	36.3	36.3	42	15.4	2	6	248	0.00	30.213 
18:15	36.3	36.3	36.3	42	15.4	2	6	248	0.00	30.217 
18:20	36.3	36.3	36.3	42	15.4	1	5	248	0.00	30.217 
18:25	36.2	36.2	36.2	42	15.3	1	4	248	0.00	30.217 
18:30	36.2	36.2	36.2	42	15.3	1	4	248	0.00	30.218 
18:35	36.0	36.0	36.0	43	15.7	1	4	270	0.00	30.218 
18:40	35.8	35.8	35.8	44	16.0	1	3	270	0.00	30.218 
18:45	35.5	35.5	35.5	44	15.8	1	3	270	0.00	30.225 
18:50	35.3	35.3	35.3	45	16.1	1	5	248	0.00	30.225 
18:55	35.2	35.2	35.2	45	16.0	2	11	248	0.00	30.225 
19:00	35.0	35.0	35.0	45	15.8	1	5	225	0.00	30.225 
19:05	35.0	35.0	35.0	46	16.3	1	6	248	0.00	30.225 
19:10	34.9	34.9	34.9	46	16.2	1	6	248	0.00	30.225 
19:15	34.9	34.9	34.9	46	16.2	3	9	248	0.00	30.227 
19:20	34.9	34.9	34.9	46	16.2	2	5	248	0.00	30.227 
19:25	34.9	34.9	34.9	46	16.2	3	6	248	0.00	30.227 
19:30	34.7	34.7	34.7	46	16.1	1	4	248	0.00	30.226 
19:35	34.7	34.7	34.7	46	16.1	1	5	248	0.00	30.226 
19:40	34.7	34.7	34.7	46	16.1	2	6	248	0.00	30.226 
19:45	34.9	34.9	34.9	45	15.7	2	7	248	0.00	30.228 
19:50	34.9	34.9	34.9	45	15.7	2	6	248	0.00	30.228 
19:55	34.9	34.9	34.9	45	15.7	2	5	248	0.00	30.228 
20:00	34.9	34.9	34.9	46	16.2	2	5	248	0.00	30.229 
20:05	34.9	34.9	34.9	45	15.7	3	7	248	0.00	30.229 
20:10	35.0	35.0	35.0	45	15.8	3	8	248	0.00	30.229 
20:15	35.2	35.2	35.2	44	15.5	3	10	248	0.00	30.232 
20:20	35.2	35.2	35.2	44	15.5	3	7	270	0.00	30.232 
20:25	35.0	35.0	35.0	45	15.8	2	6	248	0.00	30.232 
20:30	35.0	35.0	35.0	45	15.8	3	11	248	0.00	30.228 
20:35	35.0	35.0	35.0	44	15.3	3	7	248	0.00	30.228 
20:40	35.2	35.2	35.2	45	16.0	3	6	248	0.00	30.228 
20:45	35.2	35.2	35.2	44	15.5	3	9	248	0.00	30.228 
20:50	35.2	35.2	35.2	44	15.5	3	7	248	0.00	30.228 
20:55	35.3	35.3	35.3	44	15.6	3	8	248	0.00	30.228 
21:00	35.3	35.3	35.3	44	15.6	3	10	248	0.00	30.226 
21:05	35.3	35.3	35.3	45	16.1	3	13	270	0.00	30.226 
21:10	35.2	35.2	35.2	45	16.0	3	6	248	0.00	30.226 
21:15	35.2	35.2	35.2	46	16.5	3	7	248	0.00	30.222 
21:20	35.0	35.0	35.0	46	16.3	3	7	248	0.00	30.222 
21:25	34.9	34.9	34.9	46	16.2	2	5	248	0.00	30.222 
21:30	34.9	34.9	34.9	46	16.2	3	9	248	0.00	30.223 
21:35	34.7	34.7	34.7	47	16.6	2	7	248	0.00	30.223 
21:40	34.7	34.7	34.7	47	16.6	2	10	248	0.00	30.223 
21:45	34.6	34.6	34.6	48	16.9	2	5	248	0.00	30.222 
21:50	34.6	34.6	34.6	48	16.9	2	7	248	0.00	30.222 
21:55	34.6	34.6	34.6	48	16.9	2	7	248	0.00	30.222 
22:00	34.6	34.6	34.6	48	16.9	3	7	248	0.00	30.222 
22:05	34.6	34.6	34.6	48	16.9	2	7	248	0.00	30.222 
22:10	34.6	34.6	34.6	48	16.9	3	17	248	0.00	30.222 
22:15	34.7	34.7	34.7	48	17.0	3	7	270	0.00	30.218 
22:20	34.7	34.7	34.7	48	17.0	3	7	248	0.00	30.218 
22:25	35.0	30.6	35.0	47	16.8	5	11	248	0.00	30.218 
22:30	35.0	35.0	35.0	47	16.8	3	12	248	0.00	30.217 
22:35	34.9	34.9	34.9	47	16.7	3	10	248	0.00	30.217 
22:40	34.9	34.9	34.9	47	16.7	3	8	248	0.00	30.217 
22:45	34.7	34.7	34.7	48	17.0	2	7	248	0.00	30.217 
22:50	34.6	34.6	34.6	48	16.9	3	7	248	0.00	30.217 
22:55	34.6	34.6	34.6	48	16.9	3	12	248	0.00	30.217 
23:00	34.6	34.6	34.6	48	16.9	3	9	248	0.00	30.217 
23:05	34.4	34.4	34.4	48	16.8	2	6	248	0.00	30.217 
23:10	34.4	34.4	34.4	48	16.8	3	10	248	0.00	30.217 
23:15	34.4	34.4	34.4	48	16.8	3	9	248	0.00	30.213 
23:20	34.4	34.4	34.4	48	16.8	3	7	248	0.00	30.213 
23:25	34.3	34.3	34.3	48	16.7	2	6	248	0.00	30.213 
23:30	34.1	34.1	34.1	48	16.5	2	7	248	0.00	30.212 
23:35	34.3	34.3	34.3	48	16.7	3	10	248	0.00	30.212 
23:40	34.3	34.3	34.3	49	17.1	3	7	248	0.00	30.212 
23:45	34.1	34.1	34.1	48	16.5	2	7	248	0.00	30.207 
23:50	34.1	34.1	34.1	49	17.0	2	6	248	0.00	30.207 
23:55	34.1	34.1	34.1	48	16.5	3	7	270	0.00	30.207 

CoCoRaHS
IN-AL-39
A2 Web Hosting
Creative Commons License
GoDaddy
Look for:

loaded 2017-10-16 18:12:21 • last modified 2010-11-18 10:43:29
Privacy PolicyDisclaimer
• wx.awcolley.com is powered by PmWiki v.2002016 •
• all content (unless otherwise noted) © 2017 A W Colley